Weather observations for the past three days for
Joseph A Hardy Connellsville Airport
Imperial (Metric)
Date Time (edt) Wind (mph) Vis. (mi.) Weather Sky Cond. Temperature (ºF) Relative Humidity Wind Chill (°F) Heat Index (°F) Pressure Precipitation (in)
Air Dwpt 6 hour altimeter (in) sea level (mb) 1 hr 3 hr 6 hr
Max. Min.
04 00:15 W 5 10.00 Fair CLR 67.1 66.6 98% 30.04 0.0
03 23:55 Calm 10.00 Fair CLR 66.9 66.4 98% 30.04 0.0
03 23:35 SW 3 10.00 Fair CLR 67.1 66.6 98% 30.06 0.0
03 23:15 SW 5 10.00 Partly Cloudy SCT001 67.3 66.7 98% 30.07 0.0
03 22:55 SW 3 5.00 Fog/Mist SCT001 67.5 66.7 98% 30.07 0.0 0.01 0.61
03 22:35 SW 3 10.00 Fair CLR 67.6 66.7 97% 30.07 0.0 0.01
03 22:15 Calm 2.50 Fog/Mist SCT110 68 66.9 96% 30.08 0.0
03 21:55 S 3 7.00 Rain Fog/Mist SCT038 SCT055 OVC110 68.2 66.9 96% 30.09 0.0 0.27
03 21:35 NW 3 3.50 Heavy Rain Fog/Mist SCT011 BKN038 OVC050 68.7 66.7 93% 30.13 0.0 0.18
03 21:15 N 3 10.00 Mostly Cloudy SCT021 BKN043 BKN050 68.5 66.4 93% 30.11 0.0
03 20:55 NE 8 10.00 Rain SCT016 BKN031 OVC044 68.4 65.8 92% 30.08 0.0 0.33
03 20:35 NE 15 G 21 7.00 Heavy Rain SCT028 BKN034 OVC046 70.5 65.3 84% 30.07 0.0 0.07
03 20:15 NE 13 10.00 Overcast SCT030 BKN045 OVC075 71.1 65.3 82% 30.04 0.0
03 19:55 E 13 G 20 10.00 Overcast SCT012 BKN049 OVC100 70.3 65.7 89.8 70.3 85% 30.03 0.0
03 19:35 E 12 10.00 Overcast SCT014 BKN050 OVC070 73.8 68.2 83% 30.05 0.0
03 19:15 Calm 10.00 Overcast SCT060 SCT075 OVC090 82.6 73.9 75% 89 30.03 0.0
03 18:55 W 3 10.00 Mostly Cloudy BKN090 BKN120 83.3 73.9 73% 90 30.04 0.0
03 18:35 W 6 10.00 Partly Cloudy SCT090 83.7 73.8 72% 90 30.02 0.0
03 18:15 SW 10 10.00 Fair CLR 84.4 73 69% 91 29.99 0.0
03 17:55 SW 6 10.00 Fair CLR 85.1 72.9 67% 92 29.99 0.0
03 17:35 SW 7 10.00 Fair CLR 86.4 72.3 63% 93 29.99 0.0
03 17:15 SW 9 10.00 Partly Cloudy SCT041 87.4 73 62% 95 29.97 0.0
03 16:55 SW 7 10.00 Fair CLR 88.9 73 60% 97 29.99 0.0
03 16:35 SW 10 10.00 Partly Cloudy SCT040 89.2 72.9 59% 97 29.99 0.0
03 16:15 W 8 10.00 Fair CLR 89.4 73.2 59% 98 30 0.0
03 15:55 SW 8 10.00 Fair CLR 88.7 73 60% 97 30 0.0
03 15:35 SW 9 10.00 Fair CLR 88.7 72.1 58% 96 30.01 0.0
03 15:15 SW 7 5.00 Fair with Haze CLR 88.2 72.1 59% 95 30.03 0.0
03 14:55 SW 8 10.00 Fair CLR 88 70.9 57% 94 30.04 0.0
03 14:35 SW 13 10.00 Fair CLR 87.8 71.4 58% 94 30.05 0.0
03 14:15 SW 8 10.00 Fair CLR 87.1 70 57% 92 30.06 0.0
03 13:55 S 7 10.00 Fair CLR 86.2 70.5 86.5 70.5 60% 91 30.06 0.0 0.11
03 13:35 SW 8 10.00 Fair CLR 85.5 70.2 60% 90 30.07 0.0
03 13:15 S 7 10.00 Fair CLR 83.8 69.8 63% 88 30.07 0.0
03 12:55 SE 5 10.00 Fair CLR 80.8 68.9 67% 84 30.08 0.0
03 12:35 E 6 7.00 Fair CLR 80.4 68.5 67% 83 30.09 0.0
03 12:15 E 8 10.00 Fair CLR 78.3 68 71% 80 30.11 0.0
03 11:55 E 7 10.00 Fair CLR 78.4 69.4 74% 81 30.11 0.0
03 11:35 E 3 10.00 Fair CLR 75.9 70 82% 77 30.11 0.0
03 11:15 E 3 10.00 Partly Cloudy SCT050 74.5 71.1 89% 30.11 0.0
03 10:55 E 6 10.00 Mostly Cloudy SCT022 SCT034 BKN100 71.8 70.2 95% 30.12 0.0 0.11 0.11
03 10:35 NE 8 5.00 Heavy Rain Fog/Mist SCT022 BKN050 OVC100 70.7 68.5 93% 30.13 0.0 0.08
03 10:15 E 6 10.00 Overcast SCT026 SCT030 OVC040 71.1 68 90% 30.12 0.0
03 09:55 E 6 10.00 Overcast OVC024 70.9 67.3 88% 30.11 0.0
03 09:35 E 7 10.00 Light Rain OVC022 70.9 67.3 88% 30.11 0.0
03 09:15 NE 15 G 20 10.00 Mostly Cloudy BKN018 BKN028 BKN110 72.7 67.5 84% 30.12 0.0
03 08:55 N 5 10.00 Partly Cloudy SCT080 SCT110 76.3 70.9 83% 77 30.1 0.0
03 08:35 Calm 10.00 Fair CLR 75.4 70.9 86% 75 30.09 0.0
03 08:15 SW 3 10.00 Fair CLR 75 70.9 87% 75 30.09 0.0
03 07:55 Calm 10.00 Partly Cloudy SCT085 75.2 70.3 77.7 74.3 85% 75 30.09 0.0
03 07:35 S 5 10.00 Fair CLR 74.8 70.3 86% 30.08 0.0
03 07:15 SE 3 10.00 Partly Cloudy SCT043 SCT050 SCT070 74.7 69.8 85% 30.08 0.0
03 06:55 NE 3 10.00 Mostly Cloudy BKN045 BKN050 BKN070 74.7 70.2 86% 30.09 0.0
03 06:35 NE 8 10.00 Mostly Cloudy BKN045 BKN055 BKN095 75 70.2 85% 75 30.08 0.0
03 06:15 W 3 10.00 Mostly Cloudy BKN045 BKN060 BKN095 75.7 70 82% 76 30.06 0.0
03 05:55 SW 6 10.00 Overcast BKN047 BKN055 OVC075 76.1 70 81% 77 30.05 0.0
03 05:35 SW 7 10.00 Mostly Cloudy BKN047 BKN065 BKN090 76.1 70 81% 77 30.05 0.0
03 05:15 SW 6 10.00 Fair CLR 75.7 69.8 82% 76 30.05 0.0
03 04:55 SW 7 10.00 Fair CLR 75.9 69.8 81% 77 30.05 0.0
03 04:35 SW 6 10.00 Fair CLR 76.1 69.6 80% 77 30.05 0.0
03 04:15 SW 7 10.00 Fair CLR 76.3 69.6 80% 77 30.05 0.0
03 03:55 SW 7 10.00 Fair CLR 76.5 69.6 79% 78 30.05 0.0
03 03:35 SW 8 10.00 Fair CLR 76.3 69.6 80% 77 30.05 0.0
03 03:15 SW 7 10.00 Fair CLR 76.3 69.6 80% 77 30.05 0.0
03 02:55 SW 6 10.00 Partly Cloudy SCT055 76.1 70 81% 77 30.05 0.0
03 02:35 SW 6 10.00 Fair CLR 76.6 70.2 80% 78 30.05 0.0
03 02:15 W 6 10.00 Partly Cloudy SCT050 77.4 70.2 79% 79 30.05 0.0
03 01:55 SW 5 10.00 Mostly Cloudy BKN050 77.7 70.3 83.5 77.5 78% 80 30.05 0.0
03 01:35 SW 6 10.00 Partly Cloudy SCT055 78.6 70.2 75% 81 30.05 0.0
03 01:15 SW 8 10.00 Fair CLR 78.8 70.3 75% 81 30.05 0.0
03 00:55 SW 7 10.00 Fair CLR 79.7 70.5 74% 83 30.04 0.0
03 00:35 SW 7 10.00 Fair CLR 79.5 70.7 75% 83 30.04 0.0
03 00:15 SW 7 10.00 Fair CLR 79 71.1 77% 82 30.04 0.0
02 23:55 SW 6 10.00 Fair CLR 78.8 71.4 78% 82 30.05 0.0
02 23:35 SW 6 10.00 Fair CLR 79 71.6 78% 82 30.05 0.0
02 23:15 SW 5 10.00 Fair CLR 79.2 72 79% 82 30.06 0.0
02 22:55 SW 5 10.00 Fair CLR 79.3 72.1 79% 83 30.05 0.0
02 22:35 SW 6 10.00 Fair CLR 79.5 72.3 79% 83 30.06 0.0
02 22:15 SW 6 10.00 Fair CLR 79.5 72.7 80% 83 30.06 0.0
02 21:55 SW 6 10.00 Fair CLR 79.2 72.9 81% 83 30.06 0.0
02 21:35 SW 5 10.00 Fair CLR 79.7 72.7 79% 84 30.06 0.0
02 21:15 SW 3 4.00 Fair with Haze CLR 80.8 72.7 76% 85 30.06 0.0
02 20:55 SW 3 5.00 Fair CLR 81.9 72.9 74% 87 30.07 0.0
02 20:35 S 3 10.00 Fair CLR 82 72.9 74% 87 30.06 0.0
02 20:15 S 5 10.00 Fair CLR 82.9 72.7 71% 89 30.05 0.0
02 19:55 SW 5 10.00 Fair CLR 83.8 72.7 91.2 83.5 69% 90 30.05 0.0
02 19:35 SW 6 10.00 Fair CLR 84.7 72.9 68% 91 30.05 0.0
02 19:15 SW 5 7.00 Fair with Haze CLR 85.8 72.5 65% 92 30.05 0.0
02 18:55 SW 8 5.00 Fair with Haze CLR 86.9 72.3 62% 94 30.05 0.0
02 18:35 SW 7 10.00 Fair CLR 87.4 72.1 61% 94 30.05 0.0
02 18:15 SW 7 10.00 Partly Cloudy SCT046 87.6 71.8 59% 94 30.05 0.0
02 17:55 SW 6 10.00 Partly Cloudy SCT048 SCT080 88.2 72.5 60% 95 30.05 0.0
02 17:35 SW 6 10.00 Mostly Cloudy SCT048 SCT060 BKN080 89.4 72 56% 96 30.05 0.0
02 17:15 SW 8 10.00 Mostly Cloudy BKN048 BKN060 BKN070 89.2 71.8 56% 96 30.05 0.0
02 16:55 SW 7 10.00 Mostly Cloudy SCT048 BKN060 BKN070 88.9 71.8 57% 96 30.06 0.0
02 16:35 SW 9 G 17 10.00 Mostly Cloudy BKN048 BKN070 90.5 70.9 53% 97 30.05 0.0
02 16:15 SW 8 10.00 Mostly Cloudy BKN048 BKN055 BKN075 89.6 71.6 55% 96 30.06 0.0
02 15:55 SW 12 10.00 Mostly Cloudy BKN048 BKN075 90.7 72 54% 98 30.07 0.0
02 15:35 SW 14 10.00 Partly Cloudy SCT048 SCT090 90.9 71.6 53% 98 30.07 0.0
02 15:15 SW 10 10.00 Partly Cloudy SCT046 SCT060 SCT080 89.8 71.1 54% 96 30.08 0.0
02 14:55 SW 9 10.00 Partly Cloudy SCT046 SCT060 SCT080 91 72.5 55% 99 30.08 0.0
02 14:35 SW 12 10.00 Mostly Cloudy SCT043 BKN050 BKN090 90.7 72.7 56% 99 30.08 0.0
02 14:15 W 9 10.00 Mostly Cloudy BKN043 BKN048 90.1 72.5 56% 98 30.09 0.0
02 13:55 SW 9 10.00 Mostly Cloudy BKN041 BKN048 89.6 73 90.3 76.5 58% 98 30.09 0.0
02 13:35 SW 8 10.00 Overcast BKN039 OVC047 89.8 73.8 59% 99 30.1 0.0
02 13:15 SW 7 G 17 10.00 Mostly Cloudy BKN039 BKN046 88 73 61% 96 30.11 0.0
02 12:55 SW 8 10.00 Partly Cloudy SCT032 87.3 74.1 65% 96 30.11 0.0
02 12:35 SW 9 10.00 Fair CLR 88 73.9 63% 97 30.12 0.0
02 12:15 SW 8 10.00 Fair CLR 87.4 73.9 64% 96 30.12 0.0
02 11:55 SW 9 10.00 Partly Cloudy SCT070 86.5 73.6 65% 94 30.13 0.0
02 11:35 SW 7 10.00 Partly Cloudy SCT070 85.8 73.8 67% 94 30.13 0.0
02 11:15 SW 8 10.00 Fair CLR 84.6 72.5 67% 91 30.13 0.0
02 10:55 SW 7 10.00 Fair CLR 84.6 73.4 69% 91 30.13 0.0
02 10:35 SW 8 10.00 Fair CLR 83.1 72.7 71% 89 30.13 0.0
02 10:15 SW 10 10.00 Fair CLR 82.2 72 71% 87 30.12 0.0
02 09:55 SW 9 G 17 10.00 Fair CLR 81.1 71.8 73% 85 30.11 0.0
02 09:35 SW 9 10.00 Fair CLR 80.6 71.8 75% 85 30.11 0.0
02 09:15 SW 9 10.00 Partly Cloudy SCT110 80.1 71.8 76% 84 30.11 0.0
02 08:55 SW 6 10.00 Partly Cloudy SCT110 79.5 72 78% 83 30.12 0.0
02 08:35 SW 6 10.00 Partly Cloudy SCT110 78.8 72 80% 82 30.12 0.0
02 08:15 W 5 10.00 Partly Cloudy SCT110 77.4 71.1 81% 79 30.12 0.0
02 07:55 SW 3 10.00 Mostly Cloudy BKN110 76.5 70.5 76.6 71.2 82% 78 30.11 0.0
02 07:35 SW 6 10.00 Mostly Cloudy BKN110 75.7 70.3 83% 76 30.11 0.0
02 07:15 SW 5 10.00 Partly Cloudy SCT100 74.3 69.8 86% 30.1 0.0
02 06:55 SW 5 10.00 Overcast OVC100 73.9 69.8 87% 30.1 0.0
02 06:35 SW 5 10.00 Overcast OVC100 73.4 69.8 89% 30.1 0.0
02 06:15 SW 5 10.00 Overcast OVC110 73.4 70 89% 30.1 0.0
02 05:55 W 3 10.00 Overcast SCT075 OVC110 73 70 90% 30.11 0.0
02 05:35 W 5 10.00 Overcast SCT075 OVC110 73 70 90% 30.11 0.0
02 05:15 W 3 10.00 Mostly Cloudy SCT075 BKN100 72.9 69.8 90% 30.11 0.0
02 04:55 SW 3 10.00 Partly Cloudy SCT100 72.5 69.6 91% 30.11 0.0
02 04:35 W 5 10.00 Fair CLR 72.1 69.6 92% 30.11 0.0
02 04:15 SW 5 10.00 Fair CLR 72.5 69.8 91% 30.1 0.0
02 03:55 SW 3 10.00 Fair CLR 72.5 70 92% 30.1 0.0
02 03:35 SW 3 10.00 Fair CLR 72.1 69.8 92% 30.1 0.0
02 03:15 SW 3 10.00 Partly Cloudy SCT060 72.1 69.4 91% 30.1 0.0
02 02:55 W 3 10.00 Partly Cloudy SCT060 72.3 69.3 90% 30.1 0.0
02 02:35 W 3 10.00 Fair CLR 72.7 68.9 88% 30.1 0.0
02 02:15 Calm 10.00 Partly Cloudy SCT050 72 69.1 91% 30.1 0.0
02 01:55 Calm 10.00 Partly Cloudy SCT050 71.6 68.9 78.4 71.4 91% 30.1 0.0
02 01:35 Calm 10.00 Fair CLR 72.7 68.9 88% 30.1 0.0
02 01:15 Calm 10.00 Partly Cloudy SCT100 72.7 68.5 87% 30.1 0.0
02 00:55 Calm 10.00 Mostly Cloudy BKN100 74.1 68.9 84% 30.09 0.0
02 00:35 SW 5 10.00 Fair CLR 74.5 68.9 83% 30.09 0.0
02 00:15 S 3 10.00 Fair CLR 72.9 68.9 87% 30.08 0.0
01 23:55 Calm 10.00 Partly Cloudy SCT090 72.3 68.9 89% 30.08 0.0
01 23:35 Calm 10.00 Partly Cloudy SCT080 72.5 68.7 88% 30.08 0.0
01 23:15 Calm 10.00 Partly Cloudy SCT080 73.2 68.5 85% 30.08 0.0
01 22:55 Calm 10.00 Partly Cloudy SCT080 73.2 68.7 86% 30.08 0.0
01 22:35 E 3 10.00 Fair CLR 73.8 68.5 84% 30.09 0.0
01 22:15 Calm 10.00 Fair CLR 73.6 68.2 83% 30.09 0.0
01 21:55 Calm 10.00 Fair CLR 75.4 68 78% 76 30.08 0.0
01 21:35 Calm 10.00 Fair CLR 75.6 68.2 78% 77 30.08 0.0
01 21:15 S 3 10.00 Fair CLR 76.3 68.4 77% 78 30.08 0.0
01 20:55 SW 5 10.00 Fair CLR 76.5 68.4 76% 78 30.08 0.0
01 20:35 SW 6 10.00 Fair CLR 77 68.4 75% 79 30.08 0.0
01 20:15 SW 6 10.00 Fair CLR 77.5 68.5 74% 79 30.08 0.0
01 19:55 SW 8 10.00 Fair CLR 78.6 68.7 88 78.4 72% 81 30.08 0.0
01 19:35 SW 8 10.00 Fair CLR 79.2 68.9 71% 82 30.08 0.0
01 19:15 SW 10 10.00 Fair CLR 80.4 68.7 68% 83 30.08 0.0
01 18:55 SW 8 10.00 Fair CLR 81.3 68.5 65% 84 30.08 0.0
01 18:35 SW 9 10.00 Fair CLR 82.2 68.9 64% 86 30.08 0.0
01 18:15 SW 10 10.00 Fair CLR 82.9 68.9 63% 86 30.07 0.0
01 17:55 SW 9 10.00 Fair CLR 84 69.6 62% 88 30.07 0.0
01 17:35 SW 10 10.00 Fair CLR 84.2 69.4 61% 88 30.06 0.0
01 17:15 SW 9 10.00 Fair CLR 85.1 70.7 62% 90 30.06 0.0
01 16:55 SW 9 10.00 Partly Cloudy SCT030 84.7 70.2 62% 89 30.07 0.0
01 16:35 SW 9 10.00 Fair CLR 85.3 72.1 65% 91 30.06 0.0
01 16:15 SW 10 10.00 Fair CLR 84.6 71.6 65% 90 30.07 0.0
01 15:55 SW 10 10.00 Fair CLR 84.4 72 66% 90 30.07 0.0
01 15:35 W 9 10.00 Fair CLR 83.7 71.1 66% 89 30.08 0.0
01 15:15 W 13 G 18 10.00 Fair CLR 85.1 70.5 62% 90 30.08 0.0
01 14:55 W 14 G 22 10.00 Partly Cloudy SCT035 86.5 71.4 61% 92 30.08 0.0
01 14:35 W 13 G 21 10.00 Partly Cloudy SCT039 86.9 71.4 60% 93 30.09 0.0
01 14:15 W 14 10.00 Partly Cloudy SCT039 SCT046 SCT095 85.8 71.1 61% 91 30.1 0.0
01 13:55 W 17 G 23 10.00 Mostly Cloudy BKN039 BKN060 BKN095 86.4 71.8 88.5 73 62% 93 30.1 0.0
01 13:35 W 10 G 18 10.00 Mostly Cloudy SCT041 SCT060 BKN095 87.8 72 59% 94 30.1 0.0
01 13:15 W 16 10.00 Mostly Cloudy SCT038 SCT044 BKN095 87.3 71.2 59% 93 30.1 0.0
01 12:55 W 13 10.00 Mostly Cloudy SCT034 SCT044 BKN060 86.4 72.1 63% 93 30.1 0.0
01 12:35 SW 10 G 17 10.00 Partly Cloudy SCT034 SCT040 85.6 72.7 65% 92 30.1 0.0
01 12:15 W 10 10.00 Partly Cloudy SCT027 SCT032 85.6 73.2 67% 93 30.1 0.0
01 11:55 W 8 10.00 Fair CLR 85.1 73.6 69% 92 30.1 0.0
01 11:35 SW 8 10.00 Fair CLR 84 73 70% 90 30.1 0.0
01 10:55 SW 9 10.00 Fair CLR 82 72.9 74% 87 30.1 0.0
01 10:35 SW 8 10.00 Fair CLR 80.4 72.1 76% 85 30.1 0.0
01 10:15 SW 10 10.00 Fair CLR 78.8 71.8 79% 82 30.1 0.0
01 09:55 SW 12 10.00 Fair CLR 79 72 79% 82 30.11 0.0
01 09:35 SW 9 10.00 Fair CLR 77.2 71.4 82% 79 30.11 0.0
01 09:15 SW 9 10.00 Partly Cloudy SCT120 77.7 71.6 82% 80 30.11 0.0
01 08:55 SW 9 10.00 Mostly Cloudy BKN120 77 71.1 82% 79 30.12 0.0
01 08:35 SW 9 10.00 Mostly Cloudy BKN120 76.3 71.2 84% 77 30.12 0.0
01 08:15 SW 7 10.00 Fair CLR 74.7 70.9 88% 30.12 0.0
01 07:55 SW 6 10.00 Partly Cloudy SCT050 73 70.2 73 69.6 91% 30.11 0.0
01 07:35 SW 6 10.00 Mostly Cloudy BKN050 71.8 69.8 94% 30.11 0.0
01 07:15 SW 3 10.00 Overcast OVC046 71.1 69.3 94% 30.11 0.0
01 06:55 W 5 10.00 Mostly Cloudy BKN048 BKN060 BKN075 71.1 69.4 95% 30.1 0.0
01 06:35 SW 3 10.00 Mostly Cloudy SCT050 BKN060 70.3 68.9 95% 30.1 0.0
01 06:15 SW 3 10.00 Mostly Cloudy BKN050 BKN120 70.3 68.9 95% 30.1 0.0
01 05:55 SW 3 10.00 Mostly Cloudy SCT050 BKN120 70.5 69.1 95% 30.09 0.0
01 05:35 SW 3 10.00 Mostly Cloudy SCT050 BKN120 70.2 68.9 96% 30.09 0.0
01 05:15 SW 3 10.00 Partly Cloudy SCT050 SCT110 70 68.7 96% 30.09 0.0
01 04:55 SW 3 7.00 Partly Cloudy SCT110 69.8 68.7 96% 30.09 0.0
01 04:35 SW 3 7.00 Fair CLR 69.6 68.5 96% 30.1 0.0
01 04:15 SW 3 10.00 Fair CLR 69.8 68.4 95% 30.1 0.0
01 03:55 SW 3 10.00 Partly Cloudy SCT110 70.2 68.5 95% 30.1 0.0
01 03:35 SW 3 10.00 Mostly Cloudy BKN110 70.5 68.7 94% 30.1 0.0
01 03:15 Calm 10.00 Partly Cloudy SCT110 70.5 68.5 93% 30.1 0.0
01 02:55 SW 3 10.00 Partly Cloudy SCT090 SCT120 70.9 68.7 93% 30.1 0.0
01 02:35 S 3 10.00 Mostly Cloudy SCT090 BKN120 70.9 68.5 92% 30.11 0.0
01 02:15 Calm 10.00 Partly Cloudy SCT090 SCT120 70.5 68.4 93% 30.11 0.0
01 01:55 SW 3 10.00 Fair CLR 70.2 68.2 78.1 70.2 93% 30.11 0.0
01 01:35 Calm 10.00 Fair CLR 71.6 68.4 90% 30.12 0.0
01 01:15 Calm 10.00 Fair CLR 70.7 68.4 92% 30.12 0.0
01 00:55 Calm 10.00 Fair CLR 71.6 68.2 89% 30.11 0.0
Date Time (edt) Wind (mph) Vis. (mi.) Weather Sky Cond. Air Dwpt Max. Min. Relative Humidity Wind Chill (°F) Heat Index (°F) altimeter (in) sea level (mb) 1 hr 3 hr 6 hr
6 hour
Temperature (ºF) Pressure Precipitation (in)